createdAt,value
2023-05-12T00:01:22.973Z,101471.94
2023-05-12T00:03:54.500Z,101473.22
2023-05-12T00:06:23.246Z,101469.25
2023-05-12T00:08:52.105Z,101474.78
2023-05-12T00:11:20.370Z,101469.44
2023-05-12T00:13:49.197Z,101469.56
2023-05-12T00:16:19.667Z,101469.44
2023-05-12T00:18:48.528Z,101463.97
2023-05-12T00:21:16.841Z,101468.47
2023-05-12T00:23:45.173Z,101467.34
2023-05-12T00:26:13.501Z,101464.19
2023-05-12T00:28:41.796Z,101465.94
2023-05-12T00:31:10.074Z,101463.03
2023-05-12T00:33:38.657Z,101461.03
2023-05-12T00:36:07.370Z,101456.56
2023-05-12T00:38:35.671Z,101454.25
2023-05-12T00:41:05.197Z,101458.69
2023-05-12T00:43:34.485Z,101453.00
2023-05-12T00:46:05.840Z,101455.84
2023-05-12T00:48:38.043Z,101460.72
2023-05-12T00:51:07.202Z,101461.81
2023-05-12T00:53:48.126Z,101453.69
2023-05-12T00:56:20.637Z,101456.63
2023-05-12T00:58:49.329Z,101459.28
2023-05-12T01:01:18.015Z,101459.75
2023-05-12T01:03:47.294Z,101465.53
2023-05-12T01:06:29.721Z,101463.28
2023-05-12T01:08:59.124Z,101458.88
2023-05-12T01:11:27.639Z,101456.19
2023-05-12T01:13:56.143Z,101450.13
2023-05-12T01:16:30.832Z,101453.66
2023-05-12T01:18:59.834Z,101454.97
2023-05-12T01:21:28.276Z,101449.84
2023-05-12T01:24:00.539Z,101444.56
2023-05-12T01:26:30.766Z,101437.56
2023-05-12T01:28:59.621Z,101447.47
2023-05-12T01:31:28.293Z,101447.63
2023-05-12T01:33:56.511Z,101443.03
2023-05-12T01:36:24.741Z,101446.38
2023-05-12T01:38:53.017Z,101441.31
2023-05-12T01:41:22.206Z,101439.81
2023-05-12T01:43:50.412Z,101431.03
2023-05-12T01:46:18.719Z,101444.69
2023-05-12T01:48:47.122Z,101439.63
2023-05-12T01:51:17.603Z,101438.84
2023-05-12T01:53:45.790Z,101441.00
2023-05-12T01:56:14.051Z,101442.38
2023-05-12T01:58:42.273Z,101446.34
2023-05-12T02:01:10.549Z,101449.34
2023-05-12T02:03:38.888Z,101449.91
2023-05-12T02:06:07.376Z,101457.19
2023-05-12T02:08:35.588Z,101456.66
2023-05-12T02:11:10.639Z,101466.78
2023-05-12T02:13:38.874Z,101463.72
2023-05-12T02:16:07.909Z,101466.16
2023-05-12T02:18:36.168Z,101475.47
2023-05-12T02:21:04.398Z,101483.16
2023-05-12T02:23:32.760Z,101484.50
2023-05-12T02:26:01.215Z,101484.91
2023-05-12T02:28:29.466Z,101493.09
2023-05-12T02:30:57.787Z,101490.81
2023-05-12T02:33:25.997Z,101487.44
2023-05-12T02:35:54.247Z,101495.53
2023-05-12T02:38:22.801Z,101495.78
2023-05-12T02:40:51.097Z,101500.66
2023-05-12T02:43:19.372Z,101498.31
2023-05-12T02:45:47.848Z,101500.50
2023-05-12T02:48:16.078Z,101508.03
2023-05-12T02:50:44.370Z,101509.88
2023-05-12T02:53:12.624Z,101511.84
2023-05-12T02:55:40.948Z,101523.72
2023-05-12T02:58:09.538Z,101516.03
2023-05-12T03:00:37.796Z,101512.81
2023-05-12T03:03:06.104Z,101509.44
2023-05-12T03:05:34.443Z,101512.34
2023-05-12T03:08:03.029Z,101518.72
2023-05-12T03:10:31.339Z,101517.06
2023-05-12T03:12:59.584Z,101518.84
2023-05-12T03:15:27.741Z,101515.09
2023-05-12T03:17:55.959Z,101520.41
2023-05-12T03:20:24.268Z,101526.00
2023-05-12T03:22:52.731Z,101526.16
2023-05-12T03:25:20.930Z,101525.59
2023-05-12T03:27:49.518Z,101526.69
2023-05-12T03:30:17.918Z,101533.06
2023-05-12T03:32:47.118Z,101523.41
2023-05-12T03:35:15.607Z,101535.88
2023-05-12T03:37:43.787Z,101540.56
2023-05-12T03:40:12.722Z,101544.31
2023-05-12T03:42:41.027Z,101549.81
2023-05-12T03:45:10.155Z,101547.28
2023-05-12T03:47:39.340Z,101545.69
2023-05-12T03:50:08.792Z,101551.91
2023-05-12T03:52:39.234Z,101554.63
2023-05-12T03:55:08.197Z,101552.88
2023-05-12T03:57:37.636Z,101554.78
2023-05-12T04:00:06.918Z,101556.66
2023-05-12T04:02:35.508Z,101552.38
2023-05-12T04:05:03.863Z,101553.38
2023-05-12T04:07:32.082Z,101558.72
2023-05-12T04:10:01.413Z,101559.53
2023-05-12T04:12:29.674Z,101568.31
2023-05-12T04:14:58.413Z,101565.81
2023-05-12T04:17:26.688Z,101571.13
2023-05-12T04:19:54.956Z,101572.06
2023-05-12T04:22:25.633Z,101580.09
2023-05-12T04:24:54.067Z,101580.31
2023-05-12T04:27:22.296Z,101575.94
2023-05-12T04:29:50.497Z,101576.94
2023-05-12T04:32:19.203Z,101584.25
2023-05-12T04:34:48.912Z,101579.94
2023-05-12T04:37:17.070Z,101583.44
2023-05-12T04:39:45.245Z,101579.94
2023-05-12T04:42:13.405Z,101575.56
2023-05-12T04:44:41.750Z,101580.91
2023-05-12T04:47:09.967Z,101582.75
2023-05-12T04:49:38.159Z,101578.28
2023-05-12T04:52:06.855Z,101585.44
2023-05-12T04:54:35.106Z,101569.56
2023-05-12T04:57:04.341Z,101573.13
2023-05-12T04:59:32.751Z,101576.69
2023-05-12T05:02:01.186Z,101579.47
2023-05-12T05:04:29.577Z,101570.66
2023-05-12T05:06:57.853Z,101580.28
2023-05-12T05:09:26.132Z,101573.19
2023-05-12T05:11:54.325Z,101578.56
2023-05-12T05:14:22.840Z,101574.16
2023-05-12T05:16:51.125Z,101572.53
2023-05-12T05:19:24.382Z,101576.09
2023-05-12T05:21:58.352Z,101574.38
2023-05-12T05:24:26.562Z,101568.09
2023-05-12T05:26:54.800Z,101563.63
2023-05-12T05:29:23.291Z,101563.59
2023-05-12T05:31:51.624Z,101560.97
2023-05-12T05:34:19.968Z,101561.88
2023-05-12T05:36:48.806Z,101562.78
2023-05-12T05:39:17.033Z,101565.47
2023-05-12T05:41:45.280Z,101554.84
2023-05-12T05:44:13.520Z,101551.28
2023-05-12T05:46:41.875Z,101548.59
2023-05-12T05:49:10.129Z,101542.38
2023-05-12T05:51:38.283Z,101544.22
2023-05-12T05:54:06.627Z,101544.41
2023-05-12T05:56:36.894Z,101548.00
2023-05-12T05:59:05.968Z,101548.94
2023-05-12T06:01:34.340Z,101548.06
2023-05-12T06:04:02.760Z,101549.00
2023-05-12T06:06:31.101Z,101533.97
2023-05-12T06:08:59.365Z,101533.16
2023-05-12T06:11:27.556Z,101528.91
2023-05-12T06:13:55.742Z,101534.28
2023-05-12T06:16:23.940Z,101524.69
2023-05-12T06:18:52.207Z,101532.81
2023-05-12T06:21:20.406Z,101535.53
2023-05-12T06:23:49.023Z,101542.72
2023-05-12T06:26:17.223Z,101541.03
2023-05-12T06:28:45.406Z,101533.06
2023-05-12T06:31:13.613Z,101532.19
2023-05-12T06:33:41.828Z,101535.84
2023-05-12T06:36:11.433Z,101543.88
2023-05-12T06:38:39.673Z,101540.44
2023-05-12T06:41:07.985Z,101534.34
2023-05-12T06:43:36.185Z,101530.88
2023-05-12T06:46:04.391Z,101536.19
2023-05-12T06:48:32.637Z,101541.47
2023-05-12T06:51:00.891Z,101535.34
2023-05-12T06:53:29.144Z,101538.00
2023-05-12T06:55:57.330Z,101538.88
2023-05-12T06:58:25.501Z,101537.13
2023-05-12T07:00:53.656Z,101535.41
2023-05-12T07:03:22.390Z,101538.06
2023-05-12T07:05:50.579Z,101535.47
2023-05-12T07:08:18.864Z,101545.22
2023-05-12T07:10:47.512Z,101546.97
2023-05-12T07:13:15.711Z,101547.88
2023-05-12T07:15:44.139Z,101547.84
2023-05-12T07:18:12.517Z,101537.25
2023-05-12T07:20:40.762Z,101545.22
2023-05-12T07:23:10.125Z,101548.88
2023-05-12T07:25:38.574Z,101540.91
2023-05-12T07:28:07.332Z,101540.09
2023-05-12T07:30:35.901Z,101544.53
2023-05-12T07:33:04.440Z,101544.59
2023-05-12T07:35:32.731Z,101540.28
2023-05-12T07:38:00.928Z,101547.38
2023-05-12T07:40:29.126Z,101550.06
2023-05-12T07:42:57.382Z,101544.72
2023-05-12T07:45:26.082Z,101550.06
2023-05-12T07:47:54.367Z,101548.25
2023-05-12T07:50:22.734Z,101548.25
2023-05-12T07:52:53.467Z,101549.13
2023-05-12T07:55:23.481Z,101551.84
2023-05-12T07:57:52.040Z,101558.13
2023-05-12T08:00:20.554Z,101552.00
2023-05-12T08:02:49.677Z,101560.97
2023-05-12T08:05:18.844Z,101550.38
2023-05-12T08:07:48.365Z,101553.84
2023-05-12T08:10:16.557Z,101555.66
2023-05-12T08:12:44.819Z,101564.53
2023-05-12T08:15:13.319Z,101562.88
2023-05-12T08:17:41.999Z,101557.53
2023-05-12T08:20:10.990Z,101565.53
2023-05-12T08:22:40.653Z,101565.53
2023-05-12T08:25:11.734Z,101561.22
2023-05-12T08:27:40.843Z,101560.41
2023-05-12T08:30:10.298Z,101561.28
2023-05-12T08:32:38.569Z,101566.66
2023-05-12T08:35:07.313Z,101573.84
2023-05-12T08:37:35.633Z,101568.59
2023-05-12T08:40:04.977Z,101574.81
2023-05-12T08:42:44.637Z,101565.97
2023-05-12T08:45:13.350Z,101565.13
2023-05-12T08:47:44.497Z,101561.53
2023-05-12T08:50:13.919Z,101553.63
2023-05-12T08:52:42.141Z,101553.75
2023-05-12T08:55:11.132Z,101556.44
2023-05-12T08:57:39.848Z,101548.50
2023-05-12T09:00:09.684Z,101547.63
2023-05-12T09:02:52.004Z,101549.44
2023-05-12T09:05:22.384Z,101547.78
2023-05-12T09:07:52.990Z,101545.22
2023-05-12T09:10:34.194Z,101540.88
2023-05-12T09:13:18.275Z,101540.09
2023-05-12T09:15:49.615Z,101541.94
2023-05-12T09:18:17.816Z,101538.47
2023-05-12T09:20:46.364Z,101543.03
2023-05-12T09:23:21.539Z,101534.28
2023-05-12T09:26:03.702Z,101537.88
2023-05-12T09:28:41.044Z,101534.34
2023-05-12T09:31:16.972Z,101534.34
2023-05-12T09:33:45.617Z,101533.53
2023-05-12T09:36:27.098Z,101532.75
2023-05-12T09:39:06.030Z,101532.03
2023-05-12T09:41:44.239Z,101525.97
2023-05-12T09:44:19.552Z,101531.41
2023-05-12T09:46:49.464Z,101529.72
2023-05-12T09:49:28.193Z,101536.00
2023-05-12T09:52:00.491Z,101531.63
2023-05-12T09:54:32.931Z,101529.91
2023-05-12T09:57:09.490Z,101521.00
2023-05-12T09:59:40.492Z,101523.63
2023-05-12T10:02:10.858Z,101524.56
2023-05-12T10:04:57.768Z,101518.47
2023-05-12T10:07:28.884Z,101521.19
2023-05-12T10:10:02.205Z,101517.63
2023-05-12T10:12:30.607Z,101522.09
2023-05-12T10:15:00.631Z,101515.06
2023-05-12T10:17:33.048Z,101522.19
2023-05-12T10:20:02.421Z,101528.41
2023-05-12T10:22:34.532Z,101525.75
2023-05-12T10:25:05.829Z,101523.09
2023-05-12T10:27:34.851Z,101528.50
2023-05-12T10:30:05.699Z,101530.28
2023-05-12T10:32:34.271Z,101532.09
2023-05-12T10:35:10.574Z,101528.59
2023-05-12T10:37:38.762Z,101526.84
2023-05-12T10:40:08.116Z,101525.97
2023-05-12T10:42:54.211Z,101527.78
2023-05-12T10:45:22.907Z,101525.09
2023-05-12T10:47:51.342Z,101531.25
2023-05-12T10:50:29.837Z,101532.19
2023-05-12T10:52:58.702Z,101522.47
2023-05-12T10:55:43.518Z,101526.84
2023-05-12T10:58:13.287Z,101530.34
2023-05-12T11:00:47.729Z,101531.19
2023-05-12T11:03:20.513Z,101529.47
2023-05-12T11:06:01.374Z,101536.63
2023-05-12T11:08:30.522Z,101535.72
2023-05-12T11:10:59.538Z,101545.47
2023-05-12T11:13:29.491Z,101545.47
2023-05-12T11:16:00.784Z,101542.91
2023-05-12T11:18:29.019Z,101542.00
2023-05-12T11:20:57.306Z,101542.91
2023-05-12T11:23:28.162Z,101543.88
2023-05-12T11:25:57.212Z,101542.97
2023-05-12T11:28:25.562Z,101544.78
2023-05-12T11:30:55.564Z,101539.50
2023-05-12T11:33:24.502Z,101541.28
2023-05-12T11:35:53.003Z,101538.56
2023-05-12T11:38:25.178Z,101528.88
2023-05-12T11:40:53.391Z,101531.47
2023-05-12T11:43:23.379Z,101535.09
2023-05-12T11:45:51.719Z,101538.69
2023-05-12T11:48:22.139Z,101536.03
2023-05-12T11:50:52.145Z,101542.25
2023-05-12T11:53:20.727Z,101536.09
2023-05-12T11:55:51.767Z,101544.03
2023-05-12T11:58:27.359Z,101533.34
2023-05-12T12:00:56.063Z,101536.81
2023-05-12T12:03:25.883Z,101542.91
2023-05-12T12:06:04.666Z,101543.72
2023-05-12T12:08:33.334Z,101544.50
2023-05-12T12:11:03.631Z,101547.06
2023-05-12T12:13:32.100Z,101547.75
2023-05-12T12:16:00.363Z,101545.88
2023-05-12T12:18:28.610Z,101546.72
2023-05-12T12:20:56.844Z,101552.84
2023-05-12T12:23:25.041Z,101555.41
2023-05-12T12:25:53.213Z,101551.78
2023-05-12T12:28:21.533Z,101557.00
2023-05-12T12:30:49.771Z,101555.13
2023-05-12T12:33:20.332Z,101547.97
2023-05-12T12:35:49.251Z,101555.88
2023-05-12T12:38:17.474Z,101546.94
2023-05-12T12:40:45.878Z,101551.28
2023-05-12T12:43:14.673Z,101550.31
2023-05-12T12:45:42.855Z,101548.47
2023-05-12T12:48:11.192Z,101556.38
2023-05-12T12:50:39.468Z,101548.34
2023-05-12T12:53:07.708Z,101553.59
2023-05-12T12:55:35.915Z,101557.94
2023-05-12T12:58:04.192Z,101561.41
2023-05-12T13:00:32.383Z,101565.81
2023-05-12T13:03:01.447Z,101569.31
2023-05-12T13:05:29.701Z,101572.75
2023-05-12T13:07:57.909Z,101580.66
2023-05-12T13:10:26.754Z,101577.97
2023-05-12T13:12:54.943Z,101585.06
2023-05-12T13:15:23.421Z,101584.13
2023-05-12T13:17:52.651Z,101588.47
2023-05-12T13:20:21.114Z,101588.38
2023-05-12T13:22:49.825Z,101591.84
2023-05-12T13:25:18.645Z,101598.03
2023-05-12T13:27:47.089Z,101597.09
2023-05-12T13:30:15.405Z,101597.00
2023-05-12T13:32:43.749Z,101595.09
2023-05-12T13:35:12.121Z,101599.56
2023-05-12T13:37:40.293Z,101604.88
2023-05-12T13:40:09.229Z,101602.16
2023-05-12T13:42:37.417Z,101608.34
2023-05-12T13:45:06.259Z,101622.47
2023-05-12T13:47:34.481Z,101626.03
2023-05-12T13:50:05.189Z,101622.47
2023-05-12T13:52:33.462Z,101632.09
2023-05-12T13:55:01.731Z,101621.47
2023-05-12T13:57:30.046Z,101618.78
2023-05-12T13:59:59.361Z,101623.97
2023-05-12T14:02:27.901Z,101627.53
2023-05-12T14:04:57.476Z,101628.47
2023-05-12T14:07:26.244Z,101631.16
2023-05-12T14:09:54.484Z,101626.75
2023-05-12T14:12:26.220Z,101635.47
2023-05-12T14:14:58.110Z,101642.34
2023-05-12T14:17:30.294Z,101639.53
2023-05-12T14:19:58.527Z,101643.88
2023-05-12T14:22:26.909Z,101637.50
2023-05-12T14:24:56.528Z,101655.16
2023-05-12T14:27:24.962Z,101649.91
2023-05-12T14:29:53.242Z,101661.34
2023-05-12T14:32:21.520Z,101664.97
2023-05-12T14:34:49.696Z,101662.22
2023-05-12T14:37:17.935Z,101664.81
2023-05-12T14:39:46.381Z,101666.50
2023-05-12T14:42:14.702Z,101670.13
2023-05-12T14:44:42.995Z,101668.25
2023-05-12T14:47:11.223Z,101674.31
2023-05-12T14:49:39.428Z,101678.59
2023-05-12T14:52:07.732Z,101673.09
2023-05-12T14:54:35.923Z,101678.34
2023-05-12T14:57:04.931Z,101673.09
2023-05-12T14:59:33.600Z,101678.31
2023-05-12T15:02:01.831Z,101676.50
2023-05-12T15:04:30.141Z,101676.44
2023-05-12T15:06:58.525Z,101674.72
2023-05-12T15:09:26.845Z,101668.41
2023-05-12T15:11:55.939Z,101672.81
2023-05-12T15:16:53.210Z,101677.91
2023-05-12T15:19:22.185Z,101673.19
2023-05-12T15:21:50.436Z,101686.28
2023-05-12T15:24:18.646Z,101681.81
2023-05-12T15:26:47.087Z,101675.72
2023-05-12T15:29:15.546Z,101681.94
2023-05-12T15:31:44.650Z,101670.19
2023-05-12T15:34:12.903Z,101666.38
2023-05-12T15:36:41.097Z,101664.56
2023-05-12T15:39:09.786Z,101673.38
2023-05-12T15:41:37.996Z,101676.03
2023-05-12T15:44:07.097Z,101675.13
2023-05-12T15:46:36.492Z,101674.13
2023-05-12T15:49:04.765Z,101677.59
2023-05-12T15:51:34.705Z,101675.75
2023-05-12T15:54:03.568Z,101677.50
2023-05-12T15:56:32.033Z,101680.66
2023-05-12T15:59:00.285Z,101677.72
2023-05-12T16:01:28.753Z,101680.25
2023-05-12T16:03:57.144Z,101683.56
2023-05-12T16:06:25.481Z,101685.38
2023-05-12T16:08:54.057Z,101694.16
2023-05-12T16:11:22.393Z,101691.31
2023-05-12T16:13:53.633Z,101692.97
2023-05-12T16:16:21.910Z,101693.91
2023-05-12T16:18:50.121Z,101696.72
2023-05-12T16:21:18.409Z,101683.25
2023-05-12T16:23:46.917Z,101691.03
2023-05-12T16:26:15.135Z,101685.41
2023-05-12T16:28:43.312Z,101693.41
2023-05-12T16:31:11.645Z,101690.84
2023-05-12T16:33:39.927Z,101687.94
2023-05-12T16:36:08.356Z,101682.34
2023-05-12T16:38:36.834Z,101684.00
2023-05-12T16:41:05.523Z,101677.56
2023-05-12T16:43:33.758Z,101674.56
2023-05-12T16:46:05.097Z,101673.31
2023-05-12T16:48:37.099Z,101674.75
2023-05-12T16:51:13.657Z,101669.53
2023-05-12T16:53:42.107Z,101671.06
2023-05-12T16:56:10.648Z,101662.69
2023-05-12T16:58:39.039Z,101667.91
2023-05-12T17:01:07.428Z,101665.81
2023-05-12T17:03:35.920Z,101655.94
2023-05-12T17:06:04.925Z,101657.81
2023-05-12T17:08:36.244Z,101647.72
2023-05-12T17:11:06.113Z,101654.59
2023-05-12T17:13:37.584Z,101648.00
2023-05-12T17:16:06.106Z,101656.63
2023-05-12T17:19:13.507Z,101658.72
2023-05-12T17:21:22.471Z,101655.56
2023-05-12T17:23:51.423Z,101651.69
2023-05-12T17:26:19.666Z,101650.41
2023-05-12T17:28:48.143Z,101652.03
2023-05-12T17:31:16.382Z,101644.00
2023-05-12T17:33:44.595Z,101645.50
2023-05-12T17:36:13.331Z,101644.97
2023-05-12T17:38:42.252Z,101649.88
2023-05-12T17:41:10.779Z,101646.16
2023-05-12T17:43:38.988Z,101648.81
2023-05-12T17:46:08.535Z,101638.56
2023-05-12T17:48:36.905Z,101640.63
2023-05-12T17:51:05.510Z,101641.03
2023-05-12T17:53:34.416Z,101637.31
2023-05-12T17:56:02.974Z,101638.78
2023-05-12T17:58:31.512Z,101631.31
2023-05-12T18:00:59.816Z,101641.53
2023-05-12T18:03:28.302Z,101638.97
2023-05-12T18:05:56.558Z,101635.03
2023-05-12T18:08:24.766Z,101635.38
2023-05-12T18:10:52.964Z,101636.44
2023-05-12T18:13:21.234Z,101636.22
2023-05-12T18:15:50.914Z,101634.28
2023-05-12T18:18:19.224Z,101622.13
2023-05-12T18:20:47.497Z,101623.22
2023-05-12T18:23:15.714Z,101628.38
2023-05-12T18:25:43.988Z,101629.03
2023-05-12T18:28:12.235Z,101625.34
2023-05-12T18:30:40.615Z,101628.63
2023-05-12T18:33:08.885Z,101622.91
2023-05-12T18:35:37.197Z,101628.41
2023-05-12T18:38:05.655Z,101610.88
2023-05-12T18:40:33.949Z,101612.03
2023-05-12T18:43:02.633Z,101602.41
2023-05-12T18:45:30.956Z,101610.59
2023-05-12T18:47:59.234Z,101609.72
2023-05-12T18:50:27.602Z,101608.69
2023-05-12T18:52:56.000Z,101600.09
2023-05-12T18:55:24.259Z,101590.47
2023-05-12T18:57:52.785Z,101598.59
2023-05-12T19:00:26.856Z,101590.97
2023-05-12T19:02:55.470Z,101591.53
2023-05-12T19:05:24.065Z,101587.53
2023-05-12T19:07:52.542Z,101587.91
2023-05-12T19:10:21.043Z,101580.66
2023-05-12T19:12:51.698Z,101574.38
2023-05-12T19:15:20.334Z,101570.41
2023-05-12T19:17:50.454Z,101569.72
2023-05-12T19:20:18.948Z,101568.06
2023-05-12T19:22:47.405Z,101571.53
2023-05-12T19:25:18.716Z,101559.81
2023-05-12T19:27:47.478Z,101563.38
2023-05-12T19:30:16.248Z,101559.53
2023-05-12T19:32:46.984Z,101554.91
2023-05-12T19:35:16.467Z,101549.09
2023-05-12T19:37:44.823Z,101531.88
2023-05-12T19:40:13.361Z,101530.66
2023-05-12T19:42:43.110Z,101534.63
2023-05-12T19:45:11.900Z,101534.06
2023-05-12T19:47:40.372Z,101532.44
2023-05-12T19:50:09.349Z,101523.47
2023-05-12T19:52:38.170Z,101527.16
2023-05-12T19:55:08.064Z,101526.56
2023-05-12T19:57:36.606Z,101523.09
2023-05-12T20:00:05.307Z,101518.28
2023-05-12T20:02:33.638Z,101515.28
2023-05-12T20:05:02.292Z,101512.31
2023-05-12T20:07:30.510Z,101517.75
2023-05-12T20:09:58.891Z,101513.97
2023-05-12T20:12:27.125Z,101514.13
2023-05-12T20:14:55.427Z,101498.47
2023-05-12T20:17:23.977Z,101500.66
2023-05-12T20:19:52.207Z,101497.72
2023-05-12T20:22:20.382Z,101495.44
2023-05-12T20:24:48.854Z,101490.78
2023-05-12T20:27:17.054Z,101482.00
2023-05-12T20:29:45.411Z,101482.41
2023-05-12T20:32:14.467Z,101480.13
2023-05-12T20:34:43.045Z,101481.38
2023-05-12T20:37:11.273Z,101477.25
2023-05-12T20:39:39.477Z,101467.44
2023-05-12T20:42:10.867Z,101463.34
2023-05-12T20:44:39.064Z,101458.22
2023-05-12T20:47:07.471Z,101462.41
2023-05-12T20:49:35.760Z,101453.84
2023-05-12T20:52:04.108Z,101454.00
2023-05-12T20:54:32.439Z,101461.28
2023-05-12T20:57:00.665Z,101459.81
2023-05-12T20:59:28.949Z,101461.06
2023-05-12T21:01:57.331Z,101451.00
2023-05-12T21:04:25.797Z,101448.16
2023-05-12T21:06:54.172Z,101445.19
2023-05-12T21:09:22.364Z,101438.66
2023-05-12T21:11:50.551Z,101439.38
2023-05-12T21:14:18.758Z,101435.94
2023-05-12T21:16:47.178Z,101433.56
2023-05-12T21:19:15.414Z,101435.03
2023-05-12T21:21:43.737Z,101429.72
2023-05-12T21:24:12.142Z,101425.41
2023-05-12T21:26:40.395Z,101418.06
2023-05-12T21:29:08.600Z,101418.91
2023-05-12T21:31:37.051Z,101424.19
2023-05-12T21:34:05.264Z,101423.91
2023-05-12T21:36:34.979Z,101416.69
2023-05-12T21:39:03.329Z,101418.28
2023-05-12T21:41:31.566Z,101416.28
2023-05-12T21:43:59.741Z,101413.41
2023-05-12T21:46:28.024Z,101412.34
2023-05-12T21:48:56.339Z,101407.91
2023-05-12T21:51:24.566Z,101410.47
2023-05-12T21:53:55.376Z,101409.50
2023-05-12T21:56:23.932Z,101410.84
2023-05-12T21:58:52.368Z,101403.25
2023-05-12T22:01:20.764Z,101397.47
2023-05-12T22:03:49.335Z,101397.09
2023-05-12T22:06:17.920Z,101404.56
2023-05-12T22:08:46.122Z,101397.25
2023-05-12T22:11:14.716Z,101394.31
2023-05-12T22:13:43.043Z,101397.34
2023-05-12T22:16:11.292Z,101389.91
2023-05-12T22:18:39.633Z,101385.94
2023-05-12T22:21:07.862Z,101378.25
2023-05-12T22:23:36.657Z,101384.13
2023-05-12T22:26:05.104Z,101373.94
2023-05-12T22:28:33.381Z,101375.66
2023-05-12T22:31:01.665Z,101368.50
2023-05-12T22:33:29.961Z,101368.22
2023-05-12T22:36:04.010Z,101362.41
2023-05-12T22:38:32.369Z,101362.19
2023-05-12T22:41:00.666Z,101360.31
2023-05-12T22:43:29.091Z,101356.53
2023-05-12T22:45:57.490Z,101352.97
2023-05-12T22:48:25.737Z,101353.81
2023-05-12T22:50:56.981Z,101353.94
2023-05-12T22:53:25.201Z,101346.84
2023-05-12T22:55:53.436Z,101344.91
2023-05-12T22:58:21.782Z,101349.75
2023-05-12T23:00:50.032Z,101351.88
2023-05-12T23:03:18.300Z,101349.78
2023-05-12T23:05:47.127Z,101343.72
2023-05-12T23:08:15.935Z,101343.59
2023-05-12T23:10:44.143Z,101335.06
2023-05-12T23:13:12.481Z,101334.41
2023-05-12T23:15:40.705Z,101335.97
2023-05-12T23:18:09.067Z,101334.88
2023-05-12T23:20:37.485Z,101332.19
2023-05-12T23:23:05.745Z,101328.63
2023-05-12T23:25:35.955Z,101322.22
2023-05-12T23:28:04.154Z,101317.63
2023-05-12T23:30:34.193Z,101316.38
2023-05-12T23:33:02.518Z,101307.94
2023-05-12T23:35:30.880Z,101307.66
2023-05-12T23:37:59.162Z,101311.84
2023-05-12T23:40:27.659Z,101311.88
2023-05-12T23:42:55.890Z,101309.84
2023-05-12T23:45:24.087Z,101314.34
2023-05-12T23:47:52.442Z,101304.44
2023-05-12T23:50:20.937Z,101307.91
2023-05-12T23:52:49.698Z,101313.56
2023-05-12T23:55:18.032Z,101312.94
2023-05-12T23:57:46.932Z,101310.97
